Aurora, Kansas
Current Conditions -  °F | °C
As of 2:55 AM on Thursday 23 Oct 2014 (Local Time) from KCNK Reporting Station
Overcast Overcast  
Wind Chill: 60°   Ceiling: 2000
Heat Index: 60°   Visibility: 10mi
Dew Point: 59°   Wind: 6mph
Humidity: 96%   Direction: 200°SSW
Pressure: 30.05"   Gusts: NA
Location:  39.45°N, 97.53°W
Report Text: KCNK 230755Z AUTO 20005KT 10SM OVC020 16/15 A3005 RMK AO2 SLP164 T01560150
Loading
Personal Weather Stations






























Interactive Weather Map
Tropical Storm Tracking
New forecast layout! Learn more

10-Day Weather Forecast

Advertisements
Track Severe Weather on mobile